createdAt,value
2018-02-12T00:01:57.917Z,0.90
2018-02-12T00:04:25.355Z,0.90
2018-02-12T00:06:52.801Z,0.90
2018-02-12T00:09:20.234Z,0.80
2018-02-12T00:11:47.669Z,0.70
2018-02-12T00:14:15.106Z,0.70
2018-02-12T00:16:42.982Z,0.90
2018-02-12T00:19:10.546Z,0.90
2018-02-12T00:21:37.962Z,0.90
2018-02-12T00:24:05.473Z,0.80
2018-02-12T00:26:32.895Z,0.70
2018-02-12T00:29:00.329Z,0.70
2018-02-12T00:31:27.758Z,0.80
2018-02-12T00:33:55.211Z,0.90
2018-02-12T00:36:22.654Z,0.90
2018-02-12T00:38:50.095Z,0.80
2018-02-12T00:41:17.926Z,0.90
2018-02-12T00:43:45.365Z,0.90
2018-02-12T00:46:12.803Z,1.10
2018-02-12T00:48:40.601Z,1.20
2018-02-12T00:51:08.020Z,1.20
2018-02-12T00:53:35.462Z,1.10
2018-02-12T00:56:02.962Z,1.20
2018-02-12T00:58:30.414Z,1.40
2018-02-12T01:00:57.843Z,1.40
2018-02-12T01:03:25.283Z,1.40
2018-02-12T01:05:52.722Z,1.40
2018-02-12T01:08:20.541Z,1.30
2018-02-12T01:10:47.982Z,1.30
2018-02-12T01:13:15.414Z,1.30
2018-02-12T01:15:42.923Z,1.30
2018-02-12T01:18:10.342Z,1.30
2018-02-12T01:20:37.786Z,1.20
2018-02-12T01:23:05.298Z,1.20
2018-02-12T01:25:32.722Z,1.10
2018-02-12T01:28:00.150Z,1.10
2018-02-12T01:30:27.602Z,1.10
2018-02-12T01:32:55.034Z,1.20
2018-02-12T01:35:22.482Z,1.20
2018-02-12T01:37:49.915Z,1.10
2018-02-12T01:40:17.358Z,1.20
2018-02-12T01:42:44.790Z,1.20
2018-02-12T01:45:12.633Z,1.20
2018-02-12T01:47:40.074Z,1.20
2018-02-12T01:50:18.427Z,1.10
2018-02-12T01:52:45.862Z,1.10
2018-02-12T01:55:13.694Z,1.00
2018-02-12T01:57:41.134Z,1.00
2018-02-12T02:00:08.563Z,1.00
2018-02-12T02:02:36.015Z,1.00
2018-02-12T02:05:03.445Z,1.00
2018-02-12T02:07:30.878Z,1.00
2018-02-12T02:09:58.320Z,1.00
2018-02-12T02:12:25.763Z,1.00
2018-02-12T02:14:53.198Z,1.00
2018-02-12T02:17:20.630Z,1.10
2018-02-12T02:19:48.066Z,1.20
2018-02-12T02:22:15.505Z,1.20
2018-02-12T02:24:42.946Z,1.20
2018-02-12T02:27:11.390Z,1.30
2018-02-12T02:29:39.214Z,1.30
2018-02-12T02:32:06.658Z,1.30
2018-02-12T02:34:34.102Z,1.20
2018-02-12T02:37:01.531Z,1.20
2018-02-12T02:39:29.362Z,1.10
2018-02-12T02:41:56.805Z,1.10
2018-02-12T02:44:24.244Z,1.00
2018-02-12T02:46:51.685Z,1.00
2018-02-12T02:49:19.122Z,1.00
2018-02-12T02:51:46.568Z,0.90
2018-02-12T02:54:14.007Z,0.90
2018-02-12T02:56:41.454Z,0.90
2018-02-12T02:59:08.886Z,0.90
2018-02-12T03:01:36.331Z,0.90
2018-02-12T03:04:03.766Z,1.00
2018-02-12T03:06:31.209Z,1.00
2018-02-12T03:08:59.042Z,0.90
2018-02-12T03:11:26.484Z,0.90
2018-02-12T03:13:53.921Z,1.00
2018-02-12T03:16:21.349Z,1.00
2018-02-12T03:18:49.174Z,0.90
2018-02-12T03:21:16.625Z,0.90
2018-02-12T03:23:44.054Z,0.90
2018-02-12T03:26:12.197Z,0.90
2018-02-12T03:28:39.634Z,0.90
2018-02-12T03:31:07.082Z,0.90
2018-02-12T03:33:34.514Z,0.90
2018-02-12T03:36:01.955Z,0.80
2018-02-12T03:38:29.393Z,0.60
2018-02-12T03:40:56.834Z,0.50
2018-02-12T03:43:24.678Z,0.50
2018-02-12T03:48:47.875Z,0.30
2018-02-12T03:51:15.697Z,0.40
2018-02-12T03:53:43.115Z,0.40
2018-02-12T03:56:10.538Z,0.50
2018-02-12T03:58:37.963Z,0.70
2018-02-12T04:01:05.365Z,0.70
2018-02-12T04:03:33.188Z,0.70
2018-02-12T04:06:00.618Z,0.70
2018-02-12T04:08:28.047Z,0.70
2018-02-12T04:10:55.483Z,0.60
2018-02-12T04:13:22.910Z,0.50
2018-02-12T04:15:50.316Z,0.60
2018-02-12T04:18:18.139Z,0.60
2018-02-12T04:20:45.564Z,0.60
2018-02-12T04:23:12.985Z,0.50
2018-02-12T04:25:40.495Z,0.50
2018-02-12T04:28:07.906Z,0.60
2018-02-12T04:30:35.293Z,0.50
2018-02-12T04:33:02.712Z,0.50
2018-02-12T04:35:30.513Z,0.50
2018-02-12T04:37:57.928Z,0.50
2018-02-12T04:40:25.333Z,0.50
2018-02-12T04:42:52.753Z,0.60
2018-02-12T04:45:20.160Z,0.50
2018-02-12T04:47:47.575Z,0.60
2018-02-12T04:50:14.981Z,0.60
2018-02-12T04:52:42.395Z,0.80
2018-02-12T04:55:09.810Z,0.80
2018-02-12T04:57:37.615Z,0.80
2018-02-12T05:00:05.022Z,0.80
2018-02-12T05:02:32.434Z,0.90
2018-02-12T05:04:59.849Z,0.90
2018-02-12T05:07:27.653Z,0.90
2018-02-12T05:09:55.062Z,0.90
2018-02-12T05:12:22.875Z,1.00
2018-02-12T05:14:50.285Z,1.00
2018-02-12T05:17:18.101Z,1.00
2018-02-12T05:19:45.510Z,1.00
2018-02-12T05:22:13.317Z,1.10
2018-02-12T05:24:40.717Z,1.10
2018-02-12T05:27:08.138Z,1.00
2018-02-12T05:29:35.540Z,0.90
2018-02-12T05:32:02.952Z,0.90
2018-02-12T05:34:30.374Z,0.90
2018-02-12T05:36:57.778Z,0.90
2018-02-12T05:39:25.209Z,1.00
2018-02-12T05:41:52.617Z,1.00
2018-02-12T05:44:20.017Z,1.00
2018-02-12T05:46:47.433Z,1.10
2018-02-12T05:49:15.301Z,1.10
2018-02-12T05:51:43.138Z,1.20
2018-02-12T05:54:10.541Z,1.30
2018-02-12T05:56:37.957Z,1.30
2018-02-12T05:59:05.368Z,1.20
2018-02-12T06:01:32.787Z,1.10
2018-02-12T06:04:00.586Z,1.00
2018-02-12T06:06:28.010Z,1.00
2018-02-12T06:08:55.418Z,1.00
2018-02-12T06:11:22.851Z,1.00
2018-02-12T06:13:50.253Z,0.90
2018-02-12T06:16:17.667Z,0.90
2018-02-12T06:18:45.072Z,0.80
2018-02-12T06:21:12.479Z,0.80
2018-02-12T06:23:39.903Z,0.80
2018-02-12T06:26:07.706Z,0.90
2018-02-12T06:28:35.116Z,0.90
2018-02-12T06:31:02.526Z,0.90
2018-02-12T06:33:29.945Z,0.90
2018-02-12T06:35:57.356Z,1.00
2018-02-12T06:38:25.665Z,1.00
2018-02-12T06:40:53.470Z,0.90
2018-02-12T06:43:20.893Z,0.90
2018-02-12T06:45:48.334Z,0.90
2018-02-12T06:48:16.607Z,0.90
2018-02-12T06:50:44.061Z,0.90
2018-02-12T06:53:11.889Z,0.80
2018-02-12T06:55:39.297Z,0.80
2018-02-12T06:58:07.121Z,0.80
2018-02-12T07:00:34.557Z,0.80
2018-02-12T07:03:01.994Z,0.80
2018-02-12T07:05:29.397Z,0.80
2018-02-12T07:07:59.337Z,0.90
2018-02-12T07:10:29.152Z,0.90
2018-02-12T07:12:57.126Z,0.90
2018-02-12T07:15:29.600Z,0.90
2018-02-12T07:17:57.015Z,0.90
2018-02-12T07:20:25.076Z,1.00
2018-02-12T07:22:52.485Z,1.00
2018-02-12T07:25:21.081Z,1.10
2018-02-12T07:27:49.126Z,1.10
2018-02-12T07:30:16.615Z,1.20
2018-02-12T07:32:44.477Z,1.30
2018-02-12T07:35:12.699Z,1.30
2018-02-12T07:37:41.521Z,1.30
2018-02-12T07:40:10.793Z,1.30
2018-02-12T07:42:38.707Z,1.30
2018-02-12T07:45:06.208Z,1.40
2018-02-12T07:47:38.214Z,1.30
2018-02-12T07:50:06.043Z,1.40
2018-02-12T07:52:34.476Z,1.40
2018-02-12T07:55:03.531Z,1.40
2018-02-12T07:57:31.258Z,1.40
2018-02-12T07:59:59.643Z,1.50
2018-02-12T08:02:27.781Z,1.50
2018-02-12T08:07:40.940Z,1.60
2018-02-12T08:10:10.168Z,1.60
2018-02-12T08:12:39.133Z,1.60
2018-02-12T08:15:07.212Z,1.70
2018-02-12T08:17:34.721Z,1.70
2018-02-12T08:20:04.242Z,1.70
2018-02-12T08:22:34.611Z,1.70
2018-02-12T08:25:04.410Z,1.80
2018-02-12T08:27:32.795Z,1.80
2018-02-12T08:30:02.239Z,1.80
2018-02-12T08:32:29.792Z,1.80
2018-02-12T08:34:58.438Z,1.80
2018-02-12T08:37:29.231Z,1.90
2018-02-12T08:39:57.826Z,1.90
2018-02-12T08:42:26.645Z,1.90
2018-02-12T08:44:54.975Z,1.90
2018-02-12T08:47:24.027Z,1.80
2018-02-12T08:49:55.377Z,1.80
2018-02-12T08:52:23.233Z,1.80
2018-02-12T08:54:54.495Z,1.90
2018-02-12T09:00:06.299Z,1.90
2018-02-12T09:02:34.578Z,2.00
2018-02-12T09:05:05.491Z,2.10
2018-02-12T09:07:34.727Z,2.20
2018-02-12T09:10:04.010Z,2.30
2018-02-12T09:12:32.254Z,2.30
2018-02-12T09:15:03.177Z,2.40
2018-02-12T09:17:32.796Z,2.60
2018-02-12T09:20:00.402Z,2.70
2018-02-12T09:22:28.816Z,2.90
2018-02-12T09:24:59.908Z,3.00
2018-02-12T09:27:27.453Z,3.00
2018-02-12T09:29:54.871Z,2.90
2018-02-12T09:32:22.658Z,3.00
2018-02-12T09:34:50.070Z,2.90
2018-02-12T09:37:17.478Z,2.90
2018-02-12T09:39:44.898Z,2.70
2018-02-12T09:42:12.697Z,2.50
2018-02-12T09:44:40.110Z,2.50
2018-02-12T09:47:07.521Z,2.40
2018-02-12T09:49:34.936Z,2.30
2018-02-12T09:52:02.334Z,2.30
2018-02-12T09:54:29.773Z,2.50
2018-02-12T09:56:57.184Z,2.50
2018-02-12T09:59:24.620Z,2.60
2018-02-12T10:01:52.023Z,2.50
2018-02-12T10:04:19.457Z,2.40
2018-02-12T10:06:47.347Z,2.50
2018-02-12T10:09:14.807Z,2.50
2018-02-12T10:11:42.619Z,2.40
2018-02-12T10:14:10.025Z,2.40
2018-02-12T10:16:37.490Z,2.50
2018-02-12T10:19:04.893Z,2.50
2018-02-12T10:21:32.981Z,2.60
2018-02-12T10:24:00.806Z,2.70
2018-02-12T10:26:28.213Z,2.70
2018-02-12T10:28:55.634Z,2.80
2018-02-12T10:31:23.057Z,3.00
2018-02-12T10:33:50.482Z,3.30
2018-02-12T10:36:17.889Z,3.20
2018-02-12T10:38:45.297Z,3.20
2018-02-12T10:41:12.774Z,3.30
2018-02-12T10:43:40.127Z,3.40
2018-02-12T10:46:07.534Z,3.40
2018-02-12T10:48:34.942Z,3.50
2018-02-12T10:51:02.391Z,3.60
2018-02-12T10:53:29.795Z,3.70
2018-02-12T10:55:57.206Z,3.70
2018-02-12T10:58:24.647Z,3.70
2018-02-12T11:00:52.059Z,3.50
2018-02-12T11:03:23.510Z,3.40
2018-02-12T11:05:50.908Z,3.30
2018-02-12T11:08:18.319Z,3.20
2018-02-12T11:10:45.722Z,3.20
2018-02-12T11:13:13.342Z,3.20
2018-02-12T11:15:40.746Z,3.30
2018-02-12T11:18:08.222Z,3.20
2018-02-12T11:20:35.656Z,3.10
2018-02-12T11:23:05.161Z,3.00
2018-02-12T11:25:32.561Z,3.00
2018-02-12T11:28:04.005Z,3.00
2018-02-12T11:30:31.466Z,3.10
2018-02-12T11:32:58.929Z,3.10
2018-02-12T11:35:26.346Z,3.10
2018-02-12T11:37:53.764Z,3.10
2018-02-12T11:40:21.242Z,3.40
2018-02-12T11:49:20.692Z,4.10
2018-02-12T11:51:48.330Z,4.10
2018-02-12T11:54:16.427Z,4.20
2018-02-12T11:56:49.549Z,4.30
2018-02-12T11:59:16.986Z,4.30
2018-02-12T12:01:44.431Z,4.30
2018-02-12T12:04:11.863Z,4.30
2018-02-12T12:06:39.678Z,4.60
2018-02-12T12:09:07.095Z,4.60
2018-02-12T12:11:37.614Z,4.60
2018-02-12T12:14:05.034Z,4.60
2018-02-12T12:16:32.437Z,4.50
2018-02-12T12:19:01.611Z,4.40
2018-02-12T12:21:29.002Z,4.30
2018-02-12T12:23:56.412Z,4.40
2018-02-12T12:26:23.827Z,4.40
2018-02-12T12:28:51.666Z,4.20
2018-02-12T12:31:19.068Z,4.20
2018-02-12T12:33:46.481Z,4.10
2018-02-12T12:36:13.931Z,4.10
2018-02-12T12:38:41.727Z,4.30
2018-02-12T12:41:09.173Z,4.30
2018-02-12T12:43:36.581Z,4.30
2018-02-12T12:46:04.010Z,4.40
2018-02-12T12:48:32.270Z,4.40
2018-02-12T12:50:59.726Z,4.50
2018-02-12T12:53:27.171Z,4.60
2018-02-12T12:55:54.640Z,4.60
2018-02-12T12:58:22.095Z,4.60
2018-02-12T13:00:49.529Z,4.40
2018-02-12T13:03:16.976Z,4.20
2018-02-12T13:05:45.436Z,4.30
2018-02-12T13:08:13.253Z,4.20
2018-02-12T13:10:40.674Z,4.20
2018-02-12T13:13:08.114Z,4.10
2018-02-12T13:15:35.529Z,4.20
2018-02-12T13:18:02.949Z,4.00
2018-02-12T13:20:30.406Z,3.80
2018-02-12T13:22:57.847Z,3.60
2018-02-12T13:25:25.649Z,3.60
2018-02-12T13:27:53.053Z,3.60
2018-02-12T13:30:20.480Z,3.70
2018-02-12T13:32:47.896Z,3.70
2018-02-12T13:35:15.297Z,3.80
2018-02-12T13:37:42.714Z,3.80
2018-02-12T13:40:10.192Z,3.90
2018-02-12T13:42:37.620Z,3.90
2018-02-12T13:45:05.049Z,4.10
2018-02-12T13:47:32.448Z,4.30
2018-02-12T13:50:00.271Z,4.40
2018-02-12T13:52:28.069Z,4.30
2018-02-12T13:54:55.484Z,4.30
2018-02-12T13:57:22.898Z,4.30
2018-02-12T13:59:50.314Z,4.40
2018-02-12T14:02:18.147Z,4.40
2018-02-12T14:04:45.566Z,4.40
2018-02-12T14:07:12.970Z,4.40
2018-02-12T14:09:40.393Z,4.50
2018-02-12T14:12:07.795Z,4.50
2018-02-12T14:14:35.594Z,4.60
2018-02-12T14:17:03.012Z,4.60
2018-02-12T14:19:30.418Z,4.50
2018-02-12T14:21:57.833Z,4.70
2018-02-12T14:24:25.656Z,4.70
2018-02-12T14:26:53.077Z,4.70
2018-02-12T14:29:20.490Z,4.70
2018-02-12T14:31:47.909Z,4.80
2018-02-12T14:34:15.323Z,4.80
2018-02-12T14:36:42.769Z,4.70
2018-02-12T14:39:10.583Z,4.80
2018-02-12T14:41:37.989Z,4.80
2018-02-12T14:44:05.398Z,4.80
2018-02-12T14:46:32.818Z,4.70
2018-02-12T14:49:00.242Z,4.50
2018-02-12T14:51:27.652Z,4.50
2018-02-12T14:53:55.057Z,4.40
2018-02-12T14:56:22.498Z,4.40
2018-02-12T14:58:49.875Z,4.40
2018-02-12T15:01:17.686Z,4.40
2018-02-12T15:03:45.094Z,4.40
2018-02-12T15:06:12.517Z,4.40
2018-02-12T15:08:39.922Z,4.40
2018-02-12T15:11:07.330Z,4.40
2018-02-12T15:13:34.741Z,4.60
2018-02-12T15:16:02.154Z,4.50
2018-02-12T15:18:29.566Z,4.40
2018-02-12T15:20:56.986Z,4.30
2018-02-12T15:23:24.788Z,4.10
2018-02-12T15:25:52.225Z,4.20
2018-02-12T15:28:19.633Z,4.10
2018-02-12T15:30:47.043Z,4.10
2018-02-12T15:33:14.461Z,4.10
2018-02-12T15:35:41.945Z,4.20
2018-02-12T15:38:09.776Z,4.50
2018-02-12T15:40:37.223Z,4.50
2018-02-12T15:43:04.633Z,4.40
2018-02-12T15:45:32.057Z,4.30
2018-02-12T15:47:59.514Z,4.40
2018-02-12T15:50:26.954Z,4.30
2018-02-12T15:52:54.376Z,4.20
2018-02-12T15:55:22.197Z,4.20
2018-02-12T15:57:50.002Z,4.10
2018-02-12T16:00:17.417Z,4.10
2018-02-12T16:02:44.840Z,4.20
2018-02-12T16:05:12.233Z,4.10
2018-02-12T16:07:40.039Z,4.00
2018-02-12T16:10:07.456Z,4.00
2018-02-12T16:12:34.872Z,4.00
2018-02-12T16:15:02.282Z,3.90
2018-02-12T16:17:29.690Z,3.80
2018-02-12T16:19:57.105Z,3.60
2018-02-12T16:22:24.514Z,3.60
2018-02-12T16:24:51.929Z,3.40
2018-02-12T16:27:19.336Z,3.40
2018-02-12T16:29:47.141Z,3.20
2018-02-12T16:32:14.569Z,3.20
2018-02-12T16:34:41.979Z,3.20
2018-02-12T16:37:09.398Z,3.10
2018-02-12T16:39:36.814Z,3.00
2018-02-12T16:42:04.223Z,2.90
2018-02-12T16:44:31.641Z,2.90
2018-02-12T16:46:59.439Z,2.70
2018-02-12T16:49:26.845Z,2.70
2018-02-12T16:51:54.261Z,2.80
2018-02-12T16:54:21.666Z,2.70
2018-02-12T16:56:49.077Z,2.70
2018-02-12T16:59:16.485Z,2.60
2018-02-12T17:01:44.399Z,2.50
2018-02-12T17:04:11.795Z,2.50
2018-02-12T17:06:39.202Z,2.40
2018-02-12T17:09:06.606Z,2.40
2018-02-12T17:11:34.018Z,2.30
2018-02-12T17:14:01.429Z,2.20
2018-02-12T17:16:29.244Z,2.30
2018-02-12T17:18:56.649Z,2.30
2018-02-12T17:21:24.505Z,2.10
2018-02-12T17:23:51.917Z,2.10
2018-02-12T17:26:19.344Z,2.10
2018-02-12T17:28:46.740Z,2.00
2018-02-12T17:31:14.153Z,2.00
2018-02-12T17:33:41.629Z,1.90
2018-02-12T17:36:09.021Z,2.10
2018-02-12T17:38:36.438Z,2.10
2018-02-12T17:41:03.862Z,2.10
2018-02-12T17:43:31.671Z,2.10
2018-02-12T17:45:59.078Z,2.10
2018-02-12T17:48:26.886Z,2.00
2018-02-12T17:50:54.361Z,2.00
2018-02-12T17:53:21.765Z,1.90
2018-02-12T17:55:49.571Z,1.80
2018-02-12T17:58:16.973Z,1.80
2018-02-12T18:00:44.391Z,1.90
2018-02-12T18:03:11.839Z,1.90
2018-02-12T18:05:39.280Z,1.80
2018-02-12T18:08:06.686Z,1.70
2018-02-12T18:10:34.099Z,1.60
2018-02-12T18:13:01.506Z,1.50
2018-02-12T18:15:28.960Z,1.60
2018-02-12T18:17:56.337Z,1.50
2018-02-12T18:20:23.764Z,1.40
2018-02-12T18:22:51.164Z,1.30
2018-02-12T18:25:18.581Z,1.30
2018-02-12T18:27:45.998Z,1.20
2018-02-12T18:30:13.406Z,1.10
2018-02-12T18:32:42.001Z,1.00
2018-02-12T18:35:09.411Z,1.00
2018-02-12T18:37:36.942Z,0.90
2018-02-12T18:40:04.350Z,0.90
2018-02-12T18:42:31.757Z,0.70
2018-02-12T18:44:59.157Z,0.70
2018-02-12T18:47:26.679Z,0.60
2018-02-12T18:49:54.091Z,0.60
2018-02-12T18:52:21.901Z,0.50
2018-02-12T18:54:49.313Z,0.40
2018-02-12T18:57:17.283Z,0.30
2018-02-12T18:59:46.319Z,0.30
2018-02-12T19:02:13.733Z,0.30
2018-02-12T19:04:41.181Z,0.30
2018-02-12T19:07:09.127Z,0.40
2018-02-12T19:09:36.557Z,0.50
2018-02-12T19:12:05.298Z,0.50
2018-02-12T19:14:33.139Z,0.40
2018-02-12T19:17:01.553Z,0.40
2018-02-12T19:19:28.981Z,0.50
2018-02-12T19:21:56.407Z,0.40
2018-02-12T19:24:23.821Z,0.50
2018-02-12T19:26:51.255Z,0.50
2018-02-12T19:29:19.088Z,0.60
2018-02-12T19:31:47.451Z,0.60
2018-02-12T19:34:14.880Z,0.60
2018-02-12T19:36:42.735Z,0.60
2018-02-12T19:39:10.513Z,0.70
2018-02-12T19:41:37.977Z,0.70
2018-02-12T19:44:06.134Z,0.70
2018-02-12T19:46:33.574Z,0.70
2018-02-12T19:49:00.989Z,0.70
2018-02-12T19:51:28.422Z,0.70
2018-02-12T19:53:55.873Z,0.70
2018-02-12T19:56:23.303Z,0.80
2018-02-12T19:58:50.770Z,0.80
2018-02-12T20:01:18.586Z,0.60
2018-02-12T20:03:47.433Z,0.70
2018-02-12T20:06:16.464Z,0.60
2018-02-12T20:08:43.884Z,0.60
2018-02-12T20:11:12.384Z,0.50
2018-02-12T20:13:42.818Z,0.40
2018-02-12T20:16:11.520Z,0.40
2018-02-12T20:18:39.149Z,0.20
2018-02-12T20:21:10.228Z,0.00
2018-02-12T20:23:40.660Z,-0.30
2018-02-12T20:26:08.192Z,-0.50
2018-02-12T20:28:36.872Z,-0.70
2018-02-12T20:31:05.721Z,-0.70
2018-02-12T20:33:36.592Z,-0.70
2018-02-12T20:36:04.043Z,-0.80
2018-02-12T20:38:37.341Z,-0.80
2018-02-12T20:41:04.789Z,-0.70
2018-02-12T20:43:32.198Z,-0.60
2018-02-12T20:45:59.872Z,-0.50
2018-02-12T20:51:02.815Z,-0.50
2018-02-12T20:53:31.356Z,-0.40
2018-02-12T20:55:59.325Z,-0.40
2018-02-12T20:58:27.182Z,-0.50
2018-02-12T21:00:56.275Z,-0.50
2018-02-12T21:03:24.482Z,-0.60
2018-02-12T21:05:53.018Z,-0.70
2018-02-12T21:08:20.459Z,-0.70
2018-02-12T21:10:48.409Z,-0.80
2018-02-12T21:13:16.174Z,-1.00
2018-02-12T21:15:43.813Z,-1.10
2018-02-12T21:18:11.256Z,-1.10
2018-02-12T21:20:40.104Z,-1.10
2018-02-12T21:23:07.580Z,-1.10
2018-02-12T21:25:34.986Z,-1.10
2018-02-12T21:28:03.317Z,-1.10
2018-02-12T21:30:31.519Z,-1.00
2018-02-12T21:32:59.009Z,-1.00
2018-02-12T21:35:26.842Z,-1.10
2018-02-12T21:37:54.333Z,-1.10
2018-02-12T21:40:21.755Z,-1.10
2018-02-12T21:42:49.190Z,-1.00
2018-02-12T21:45:17.523Z,-1.10
2018-02-12T21:47:44.970Z,-1.10
2018-02-12T21:50:12.593Z,-1.10
2018-02-12T21:52:40.637Z,-1.10
2018-02-12T21:55:08.793Z,-1.10
2018-02-12T21:57:36.258Z,-1.10
2018-02-12T22:00:03.681Z,-1.10
2018-02-12T22:02:31.407Z,-1.10
2018-02-12T22:04:59.238Z,-1.00
2018-02-12T22:07:26.955Z,-1.00
2018-02-12T22:09:55.175Z,-0.90
2018-02-12T22:12:23.476Z,-1.00
2018-02-12T22:14:50.931Z,-1.00
2018-02-12T22:17:18.859Z,-1.00
2018-02-12T22:19:46.322Z,-1.10
2018-02-12T22:22:14.154Z,-1.20
2018-02-12T22:24:41.583Z,-1.20
2018-02-12T22:27:09.420Z,-1.40
2018-02-12T22:29:36.861Z,-1.40
2018-02-12T22:32:04.349Z,-1.50
2018-02-12T22:34:31.780Z,-1.60
2018-02-12T22:37:00.328Z,-1.60
2018-02-12T22:39:28.749Z,-1.50
2018-02-12T22:41:56.198Z,-1.50
2018-02-12T22:44:23.845Z,-1.40
2018-02-12T22:46:51.253Z,-1.40
2018-02-12T22:49:20.175Z,-1.40
2018-02-12T22:51:47.573Z,-1.40
2018-02-12T22:54:14.983Z,-1.40
2018-02-12T22:56:42.406Z,-1.40
2018-02-12T22:59:09.816Z,-1.50
2018-02-12T23:01:37.249Z,-1.60
2018-02-12T23:04:04.670Z,-1.60
2018-02-12T23:06:32.082Z,-1.60
2018-02-12T23:08:59.500Z,-1.60
2018-02-12T23:11:27.325Z,-1.50
2018-02-12T23:13:54.803Z,-1.50
2018-02-12T23:16:22.177Z,-1.60
2018-02-12T23:18:49.698Z,-1.60
2018-02-12T23:21:17.128Z,-1.70
2018-02-12T23:23:44.706Z,-1.70
2018-02-12T23:26:12.177Z,-1.70
2018-02-12T23:28:39.703Z,-1.80
2018-02-12T23:31:07.174Z,-1.80
2018-02-12T23:33:34.604Z,-1.80
2018-02-12T23:36:02.068Z,-1.80
2018-02-12T23:38:29.510Z,-1.80
2018-02-12T23:40:57.096Z,-1.80
2018-02-12T23:43:24.602Z,-1.70
2018-02-12T23:45:52.077Z,-1.70
2018-02-12T23:48:19.691Z,-1.70
2018-02-12T23:50:47.181Z,-1.70
2018-02-12T23:53:15.503Z,-1.70
2018-02-12T23:55:42.953Z,-1.70
2018-02-12T23:58:10.443Z,-1.70
